createdAt,value
2023-04-15T00:00:02.222Z,99535.03
2023-04-15T00:02:40.921Z,99529.34
2023-04-15T00:05:11.091Z,99530.13
2023-04-15T00:07:40.482Z,99519.66
2023-04-15T00:10:09.735Z,99516.75
2023-04-15T00:12:37.575Z,99520.81
2023-04-15T00:15:06.893Z,99526.22
2023-04-15T00:17:34.713Z,99532.53
2023-04-15T00:20:03.585Z,99531.56
2023-04-15T00:22:32.880Z,99530.78
2023-04-15T00:25:00.645Z,99524.56
2023-04-15T00:27:28.752Z,99521.81
2023-04-15T00:29:57.258Z,99516.06
2023-04-15T00:32:25.056Z,99515.72
2023-04-15T00:34:53.124Z,99516.19
2023-04-15T00:37:21.197Z,99515.38
2023-04-15T00:39:50.807Z,99513.59
2023-04-15T00:42:20.102Z,99514.22
2023-04-15T00:44:47.952Z,99509.84
2023-04-15T00:47:17.337Z,99522.59
2023-04-15T00:49:45.697Z,99518.31
2023-04-15T00:52:13.704Z,99516.38
2023-04-15T00:54:41.984Z,99514.16
2023-04-15T00:57:11.146Z,99506.88
2023-04-15T00:59:39.089Z,99518.13
2023-04-15T01:02:07.327Z,99517.94
2023-04-15T01:04:35.854Z,99521.72
2023-04-15T01:07:03.853Z,99524.53
2023-04-15T01:09:31.793Z,99522.06
2023-04-15T01:12:00.185Z,99514.53
2023-04-15T01:14:30.197Z,99517.91
2023-04-15T01:16:58.345Z,99517.75
2023-04-15T01:19:27.416Z,99512.09
2023-04-15T01:21:55.133Z,99512.22
2023-04-15T01:24:24.039Z,99510.38
2023-04-15T01:26:53.148Z,99507.63
2023-04-15T01:29:20.962Z,99510.09
2023-04-15T01:31:53.121Z,99506.00
2023-04-15T01:34:21.083Z,99508.59
2023-04-15T01:36:49.825Z,99509.69
2023-04-15T01:39:17.752Z,99517.75
2023-04-15T01:41:45.420Z,99522.31
2023-04-15T01:44:14.446Z,99521.59
2023-04-15T01:46:42.236Z,99514.69
2023-04-15T01:49:10.182Z,99516.94
2023-04-15T01:51:37.872Z,99511.88
2023-04-15T01:54:07.144Z,99511.69
2023-04-15T01:56:35.027Z,99515.53
2023-04-15T01:59:05.049Z,99513.13
2023-04-15T02:01:34.199Z,99514.00
2023-04-15T02:04:02.643Z,99503.47
2023-04-15T02:06:32.409Z,99526.84
2023-04-15T02:09:00.943Z,99532.09
2023-04-15T02:11:29.527Z,99528.78
2023-04-15T02:13:57.253Z,99531.19
2023-04-15T02:16:26.776Z,99530.91
2023-04-15T02:18:55.906Z,99529.66
2023-04-15T02:21:23.739Z,99528.75
2023-04-15T02:23:54.016Z,99529.03
2023-04-15T02:26:22.351Z,99522.28
2023-04-15T02:28:51.353Z,99531.50
2023-04-15T02:31:19.463Z,99529.91
2023-04-15T02:33:47.736Z,99525.75
2023-04-15T02:36:16.929Z,99527.16
2023-04-15T02:38:45.207Z,99526.34
2023-04-15T02:41:15.669Z,99519.38
2023-04-15T02:43:46.253Z,99519.13
2023-04-15T02:46:15.616Z,99518.50
2023-04-15T02:48:43.683Z,99515.53
2023-04-15T02:51:21.255Z,99514.34
2023-04-15T02:53:49.728Z,99518.38
2023-04-15T02:56:19.540Z,99510.56
2023-04-15T02:58:50.490Z,99512.06
2023-04-15T03:01:18.606Z,99523.09
2023-04-15T03:03:46.967Z,99522.94
2023-04-15T03:06:14.870Z,99528.16
2023-04-15T03:08:44.254Z,99532.69
2023-04-15T03:11:14.394Z,99537.16
2023-04-15T03:13:43.221Z,99533.16
2023-04-15T03:16:21.782Z,99538.50
2023-04-15T03:18:49.591Z,99531.00
2023-04-15T03:21:18.133Z,99537.91
2023-04-15T03:23:48.677Z,99534.59
2023-04-15T03:26:25.557Z,99531.28
2023-04-15T03:28:53.875Z,99531.44
2023-04-15T03:31:21.627Z,99534.19
2023-04-15T03:33:49.499Z,99538.66
2023-04-15T03:36:17.848Z,99533.31
2023-04-15T03:38:46.010Z,99537.69
2023-04-15T03:41:15.704Z,99535.50
2023-04-15T03:43:43.433Z,99539.59
2023-04-15T03:46:11.897Z,99536.66
2023-04-15T03:48:39.582Z,99545.69
2023-04-15T03:51:07.312Z,99540.81
2023-04-15T03:53:35.646Z,99543.22
2023-04-15T03:56:03.575Z,99539.97
2023-04-15T03:58:32.879Z,99537.88
2023-04-15T04:01:00.666Z,99546.31
2023-04-15T04:03:28.706Z,99541.88
2023-04-15T04:05:56.839Z,99540.91
2023-04-15T04:08:24.535Z,99534.03
2023-04-15T04:10:52.378Z,99540.09
2023-04-15T04:13:20.092Z,99534.97
2023-04-15T04:15:49.585Z,99533.47
2023-04-15T04:18:17.372Z,99531.50
2023-04-15T04:20:45.350Z,99531.22
2023-04-15T04:23:14.280Z,99518.91
2023-04-15T04:25:42.393Z,99522.75
2023-04-15T04:28:10.093Z,99530.28
2023-04-15T04:30:40.794Z,99529.22
2023-04-15T04:33:09.903Z,99529.03
2023-04-15T04:35:37.832Z,99532.31
2023-04-15T04:38:07.444Z,99530.25
2023-04-15T04:40:35.203Z,99543.16
2023-04-15T04:43:03.175Z,99542.22
2023-04-15T04:45:30.935Z,99534.50
2023-04-15T04:47:58.832Z,99539.66
2023-04-15T04:50:27.956Z,99533.63
2023-04-15T04:52:55.621Z,99530.91
2023-04-15T04:55:23.487Z,99531.56
2023-04-15T04:57:51.453Z,99530.50
2023-04-15T05:00:19.535Z,99534.00
2023-04-15T05:02:47.793Z,99534.84
2023-04-15T05:05:16.169Z,99536.47
2023-04-15T05:07:45.358Z,99544.31
2023-04-15T05:10:14.874Z,99555.47
2023-04-15T05:12:42.760Z,99552.13
2023-04-15T05:15:11.439Z,99559.75
2023-04-15T05:17:39.456Z,99558.91
2023-04-15T05:20:09.739Z,99560.44
2023-04-15T05:22:38.179Z,99562.94
2023-04-15T05:25:10.300Z,99562.94
2023-04-15T05:27:38.543Z,99572.38
2023-04-15T05:30:07.618Z,99560.22
2023-04-15T05:32:35.694Z,99564.25
2023-04-15T05:35:03.556Z,99567.56
2023-04-15T05:37:31.320Z,99571.53
2023-04-15T05:39:59.116Z,99563.66
2023-04-15T05:42:28.289Z,99564.31
2023-04-15T05:44:56.165Z,99571.81
2023-04-15T05:47:24.249Z,99565.69
2023-04-15T05:49:52.047Z,99569.69
2023-04-15T05:52:20.449Z,99566.94
2023-04-15T05:54:48.100Z,99567.72
2023-04-15T05:57:15.918Z,99564.22
2023-04-15T05:59:45.029Z,99562.38
2023-04-15T06:02:13.657Z,99565.69
2023-04-15T06:04:41.532Z,99562.06
2023-04-15T06:07:09.459Z,99564.34
2023-04-15T06:09:37.270Z,99556.25
2023-04-15T06:12:06.576Z,99552.75
2023-04-15T06:14:34.245Z,99562.69
2023-04-15T06:17:03.406Z,99555.41
2023-04-15T06:19:31.905Z,99559.78
2023-04-15T06:22:00.718Z,99554.88
2023-04-15T06:24:28.496Z,99562.78
2023-04-15T06:26:57.856Z,99554.09
2023-04-15T06:29:25.903Z,99570.75
2023-04-15T06:31:53.846Z,99564.69
2023-04-15T06:34:23.626Z,99568.88
2023-04-15T06:36:51.275Z,99571.22
2023-04-15T06:39:19.421Z,99572.78
2023-04-15T06:41:47.591Z,99569.09
2023-04-15T06:44:15.854Z,99579.88
2023-04-15T06:46:44.210Z,99575.81
2023-04-15T06:49:12.352Z,99572.66
2023-04-15T06:51:41.607Z,99566.31
2023-04-15T06:54:09.452Z,99569.56
2023-04-15T06:56:37.326Z,99564.91
2023-04-15T06:59:05.515Z,99564.19
2023-04-15T07:01:33.423Z,99565.13
2023-04-15T07:04:01.555Z,99566.00
2023-04-15T07:06:35.618Z,99565.66
2023-04-15T07:09:06.065Z,99564.03
2023-04-15T07:11:34.098Z,99563.34
2023-04-15T07:14:02.204Z,99555.06
2023-04-15T07:16:31.047Z,99560.31
2023-04-15T07:18:59.859Z,99560.31
2023-04-15T07:21:28.139Z,99564.47
2023-04-15T07:23:55.900Z,99554.25
2023-04-15T07:26:25.352Z,99563.41
2023-04-15T07:28:53.320Z,99559.66
2023-04-15T07:31:21.334Z,99559.09
2023-04-15T07:33:49.702Z,99560.19
2023-04-15T07:36:17.718Z,99549.44
2023-04-15T07:38:45.536Z,99552.66
2023-04-15T07:41:13.475Z,99557.09
2023-04-15T07:43:43.289Z,99566.84
2023-04-15T07:46:11.102Z,99560.88
2023-04-15T07:48:38.942Z,99563.44
2023-04-15T07:51:07.499Z,99568.28
2023-04-15T07:53:35.730Z,99566.88
2023-04-15T07:56:03.635Z,99570.25
2023-04-15T07:58:31.503Z,99573.69
2023-04-15T08:01:00.870Z,99567.97
2023-04-15T08:03:29.478Z,99558.81
2023-04-15T08:05:57.497Z,99564.94
2023-04-15T08:08:25.347Z,99570.63
2023-04-15T08:10:53.277Z,99572.88
2023-04-15T08:13:22.293Z,99572.69
2023-04-15T08:16:23.454Z,99572.31
2023-04-15T08:18:52.913Z,99569.34
2023-04-15T08:21:21.719Z,99573.81
2023-04-15T08:23:51.844Z,99567.44
2023-04-15T08:26:23.985Z,99578.16
2023-04-15T08:28:51.767Z,99578.66
2023-04-15T08:31:22.794Z,99586.88
2023-04-15T08:33:53.539Z,99583.88
2023-04-15T08:36:23.294Z,99581.78
2023-04-15T08:38:51.159Z,99585.31
2023-04-15T08:41:24.623Z,99580.22
2023-04-15T08:43:59.143Z,99585.25
2023-04-15T08:46:29.146Z,99584.00
2023-04-15T08:48:59.181Z,99584.03
2023-04-15T08:51:27.826Z,99578.38
2023-04-15T08:53:56.047Z,99581.25
2023-04-15T08:56:27.126Z,99578.53
2023-04-15T08:58:55.558Z,99579.69
2023-04-15T09:01:24.472Z,99576.84
2023-04-15T09:03:54.517Z,99583.13
2023-04-15T09:06:23.479Z,99579.59
2023-04-15T09:08:53.234Z,99580.84
2023-04-15T09:11:23.070Z,99582.44
2023-04-15T09:13:51.473Z,99584.22
2023-04-15T09:16:19.587Z,99588.72
2023-04-15T09:18:47.397Z,99588.72
2023-04-15T09:21:19.223Z,99585.78
2023-04-15T09:23:57.682Z,99588.31
2023-04-15T09:26:34.207Z,99593.34
2023-04-15T09:29:09.467Z,99593.97
2023-04-15T09:31:38.421Z,99596.13
2023-04-15T09:34:06.832Z,99600.09
2023-04-15T09:36:53.944Z,99584.16
2023-04-15T09:39:22.289Z,99589.88
2023-04-15T09:42:07.760Z,99601.00
2023-04-15T09:44:36.120Z,99595.31
2023-04-15T09:47:04.115Z,99601.69
2023-04-15T09:49:31.944Z,99601.81
2023-04-15T09:52:06.023Z,99605.25
2023-04-15T09:54:39.369Z,99598.88
2023-04-15T09:57:08.367Z,99594.44
2023-04-15T09:59:37.308Z,99606.06
2023-04-15T10:02:07.414Z,99601.41
2023-04-15T10:04:38.233Z,99605.66
2023-04-15T10:07:09.547Z,99603.56
2023-04-15T10:09:39.544Z,99604.47
2023-04-15T10:12:07.645Z,99603.66
2023-04-15T10:14:38.843Z,99604.91
2023-04-15T10:17:07.052Z,99601.59
2023-04-15T10:19:38.622Z,99608.56
2023-04-15T10:22:08.204Z,99603.72
2023-04-15T10:24:36.575Z,99612.91
2023-04-15T10:27:05.361Z,99612.88
2023-04-15T10:29:33.363Z,99613.28
2023-04-15T10:32:02.621Z,99612.88
2023-04-15T10:34:31.155Z,99615.94
2023-04-15T10:37:03.443Z,99620.53
2023-04-15T10:39:45.468Z,99615.13
2023-04-15T10:42:15.171Z,99626.38
2023-04-15T10:44:44.659Z,99628.03
2023-04-15T10:47:14.454Z,99631.66
2023-04-15T10:49:47.597Z,99633.19
2023-04-15T10:52:17.631Z,99634.53
2023-04-15T10:54:47.481Z,99626.34
2023-04-15T10:57:17.973Z,99632.34
2023-04-15T11:00:11.410Z,99634.03
2023-04-15T11:02:50.813Z,99633.28
2023-04-15T11:05:19.832Z,99629.25
2023-04-15T11:07:53.763Z,99642.69
2023-04-15T11:10:54.107Z,99640.28
2023-04-15T11:13:25.148Z,99638.25
2023-04-15T11:15:58.133Z,99645.97
2023-04-15T11:18:28.448Z,99649.72
2023-04-15T11:20:59.195Z,99652.78
2023-04-15T11:23:33.303Z,99650.56
2023-04-15T11:26:05.665Z,99655.56
2023-04-15T11:28:34.299Z,99652.56
2023-04-15T11:31:10.575Z,99651.09
2023-04-15T11:33:38.914Z,99654.16
2023-04-15T11:36:07.422Z,99658.31
2023-04-15T11:38:37.933Z,99654.13
2023-04-15T11:41:07.213Z,99658.94
2023-04-15T11:43:36.410Z,99656.22
2023-04-15T11:46:05.070Z,99657.88
2023-04-15T11:48:36.322Z,99660.41
2023-04-15T11:51:05.340Z,99662.41
2023-04-15T11:53:41.446Z,99669.28
2023-04-15T11:56:12.057Z,99668.88
2023-04-15T11:58:40.832Z,99668.88
2023-04-15T12:01:08.871Z,99671.91
2023-04-15T12:03:41.705Z,99666.25
2023-04-15T12:06:16.777Z,99667.94
2023-04-15T12:09:03.576Z,99670.44
2023-04-15T12:11:35.238Z,99662.97
2023-04-15T12:14:10.039Z,99665.00
2023-04-15T12:16:48.805Z,99672.53
2023-04-15T12:19:20.060Z,99672.44
2023-04-15T12:21:49.735Z,99676.63
2023-04-15T12:24:23.020Z,99670.53
2023-04-15T12:26:54.229Z,99678.91
2023-04-15T12:29:26.661Z,99684.56
2023-04-15T12:31:56.046Z,99688.34
2023-04-15T12:34:31.415Z,99686.75
2023-04-15T12:37:01.621Z,99685.91
2023-04-15T12:39:33.122Z,99693.44
2023-04-15T12:42:02.945Z,99684.69
2023-04-15T12:44:31.697Z,99688.56
2023-04-15T12:47:00.975Z,99679.53
2023-04-15T12:49:29.690Z,99687.00
2023-04-15T12:51:59.778Z,99681.94
2023-04-15T12:54:28.695Z,99685.63
2023-04-15T12:56:57.882Z,99700.53
2023-04-15T12:59:27.435Z,99711.59
2023-04-15T13:01:55.740Z,99711.38
2023-04-15T13:04:24.529Z,99718.06
2023-04-15T13:07:17.750Z,99724.84
2023-04-15T13:09:46.767Z,99720.13
2023-04-15T13:12:16.362Z,99729.44
2023-04-15T13:14:45.776Z,99732.03
2023-04-15T13:17:14.217Z,99725.16
2023-04-15T13:19:42.917Z,99734.47
2023-04-15T13:22:11.869Z,99732.28
2023-04-15T13:24:40.926Z,99732.03
2023-04-15T13:27:08.977Z,99731.44
2023-04-15T13:29:36.828Z,99737.88
2023-04-15T13:32:06.650Z,99745.31
2023-04-15T13:34:34.630Z,99741.44
2023-04-15T13:37:07.913Z,99748.13
2023-04-15T13:39:36.064Z,99749.69
2023-04-15T13:42:04.586Z,99748.66
2023-04-15T13:44:32.806Z,99749.69
2023-04-15T13:47:00.989Z,99745.75
2023-04-15T13:49:31.130Z,99755.25
2023-04-15T13:51:59.336Z,99759.84
2023-04-15T13:54:37.654Z,99767.34
2023-04-15T13:57:06.619Z,99779.56
2023-04-15T13:59:35.584Z,99779.38
2023-04-15T14:02:04.122Z,99791.38
2023-04-15T14:04:34.133Z,99796.75
2023-04-15T14:07:03.414Z,99804.59
2023-04-15T14:12:02.540Z,99823.84
2023-04-15T14:14:30.994Z,99826.00
2023-04-15T14:17:00.157Z,99835.09
2023-04-15T14:19:28.569Z,99843.03
2023-04-15T14:21:59.548Z,99849.28
2023-04-15T14:24:28.523Z,99850.94
2023-04-15T14:26:57.455Z,99859.88
2023-04-15T14:29:26.186Z,99861.88
2023-04-15T14:32:07.439Z,99863.03
2023-04-15T14:34:40.854Z,99872.44
2023-04-15T14:37:10.065Z,99874.41
2023-04-15T14:39:38.481Z,99887.03
2023-04-15T14:42:06.615Z,99888.22
2023-04-15T14:44:34.597Z,99888.69
2023-04-15T14:47:02.803Z,99898.16
2023-04-15T14:49:31.119Z,99906.97
2023-04-15T14:52:00.148Z,99904.94
2023-04-15T14:54:29.654Z,99903.28
2023-04-15T14:56:58.146Z,99912.28
2023-04-15T14:59:26.286Z,99905.88
2023-04-15T15:01:55.028Z,99911.34
2023-04-15T15:04:23.267Z,99913.78
2023-04-15T15:06:51.796Z,99913.19
2023-04-15T15:09:22.159Z,99922.09
2023-04-15T15:11:51.997Z,99931.69
2023-04-15T15:14:22.146Z,99931.47
2023-04-15T15:16:51.175Z,99932.94
2023-04-15T15:19:19.750Z,99935.38
2023-04-15T15:21:47.818Z,99942.66
2023-04-15T15:24:16.456Z,99946.00
2023-04-15T15:26:44.898Z,99949.28
2023-04-15T15:29:14.300Z,99953.53
2023-04-15T15:31:42.398Z,99965.25
2023-04-15T15:34:10.583Z,99966.63
2023-04-15T15:36:38.798Z,99976.75
2023-04-15T15:39:06.977Z,99983.47
2023-04-15T15:41:35.451Z,99978.59
2023-04-15T15:44:04.255Z,99987.53
2023-04-15T15:46:33.750Z,99998.94
2023-04-15T15:49:04.520Z,99993.59
2023-04-15T15:51:33.135Z,99992.13
2023-04-15T15:54:01.383Z,100002.38
2023-04-15T15:56:29.646Z,100003.84
2023-04-15T15:59:00.562Z,100004.13
2023-04-15T16:01:28.629Z,100009.97
2023-04-15T16:03:58.353Z,100014.03
2023-04-15T16:06:27.190Z,100017.94
2023-04-15T16:08:55.232Z,100025.44
2023-04-15T16:11:24.341Z,100025.84
2023-04-15T16:13:52.554Z,100034.22
2023-04-15T16:16:20.798Z,100031.41
2023-04-15T16:18:49.190Z,100029.34
2023-04-15T16:21:20.221Z,100035.75
2023-04-15T16:23:48.004Z,100039.97
2023-04-15T16:26:16.508Z,100054.06
2023-04-15T16:28:44.408Z,100056.97
2023-04-15T16:31:12.656Z,100055.91
2023-04-15T16:33:40.485Z,100057.72
2023-04-15T16:36:08.664Z,100067.81
2023-04-15T16:38:38.119Z,100068.38
2023-04-15T16:41:06.052Z,100076.91
2023-04-15T16:43:33.857Z,100071.09
2023-04-15T16:46:02.109Z,100080.06
2023-04-15T16:48:29.844Z,100087.31
2023-04-15T16:50:58.592Z,100085.31
2023-04-15T16:53:26.368Z,100091.88
2023-04-15T16:55:55.456Z,100091.31
2023-04-15T16:58:23.710Z,100095.75
2023-04-15T17:00:51.882Z,100089.53
2023-04-15T17:03:19.834Z,100101.38
2023-04-15T17:05:47.622Z,100099.59
2023-04-15T17:08:15.372Z,100107.91
2023-04-15T17:10:43.117Z,100109.59
2023-04-15T17:13:12.970Z,100107.81
2023-04-15T17:15:40.897Z,100112.88
2023-04-15T17:18:10.685Z,100123.63
2023-04-15T17:20:39.709Z,100115.69
2023-04-15T17:23:07.661Z,100121.56
2023-04-15T17:25:35.768Z,100122.41
2023-04-15T17:28:04.391Z,100133.22
2023-04-15T17:30:34.105Z,100122.63
2023-04-15T17:33:02.282Z,100132.19
2023-04-15T17:35:30.444Z,100132.81
2023-04-15T17:37:58.778Z,100137.66
2023-04-15T17:40:28.075Z,100134.63
2023-04-15T17:42:56.021Z,100144.06
2023-04-15T17:45:24.354Z,100144.25
2023-04-15T17:47:54.466Z,100148.53
2023-04-15T17:50:24.147Z,100145.84
2023-04-15T17:52:52.514Z,100153.66
2023-04-15T17:55:22.202Z,100164.03
2023-04-15T17:57:50.329Z,100165.88
2023-04-15T18:00:19.062Z,100164.91
2023-04-15T18:02:58.948Z,100169.53
2023-04-15T18:05:29.321Z,100174.19
2023-04-15T18:07:58.031Z,100178.25
2023-04-15T18:11:03.623Z,100181.97
2023-04-15T18:13:32.320Z,100188.44
2023-04-15T18:16:00.897Z,100188.75
2023-04-15T18:18:29.715Z,100188.50
2023-04-15T18:20:59.028Z,100189.28
2023-04-15T18:23:26.890Z,100192.78
2023-04-15T18:25:55.516Z,100200.97
2023-04-15T18:28:23.607Z,100197.88
2023-04-15T18:30:52.159Z,100198.44
2023-04-15T18:33:20.962Z,100202.44
2023-04-15T18:35:50.133Z,100203.59
2023-04-15T18:38:19.540Z,100215.81
2023-04-15T18:40:47.986Z,100217.78
2023-04-15T18:43:18.293Z,100223.81
2023-04-15T18:45:48.565Z,100224.41
2023-04-15T18:48:18.506Z,100230.84
2023-04-15T18:50:47.932Z,100226.47
2023-04-15T18:53:17.587Z,100239.34
2023-04-15T18:55:47.351Z,100234.03
2023-04-15T18:58:15.396Z,100236.56
2023-04-15T19:00:43.955Z,100240.72
2023-04-15T19:03:12.276Z,100245.19
2023-04-15T19:05:40.941Z,100248.50
2023-04-15T19:08:08.855Z,100257.19
2023-04-15T19:10:36.689Z,100251.09
2023-04-15T19:13:06.163Z,100261.38
2023-04-15T19:15:34.076Z,100256.91
2023-04-15T19:18:02.233Z,100266.44
2023-04-15T19:20:30.619Z,100269.94
2023-04-15T19:22:58.446Z,100264.16
2023-04-15T19:25:29.130Z,100269.84
2023-04-15T19:27:58.863Z,100271.44
2023-04-15T19:30:29.074Z,100281.94
2023-04-15T19:32:57.446Z,100280.38
2023-04-15T19:35:25.445Z,100283.91
2023-04-15T19:37:53.331Z,100287.19
2023-04-15T19:40:21.356Z,100285.63
2023-04-15T19:42:49.979Z,100296.75
2023-04-15T19:45:17.892Z,100293.22
2023-04-15T19:47:47.302Z,100291.91
2023-04-15T19:50:16.998Z,100294.41
2023-04-15T19:52:44.988Z,100298.41
2023-04-15T19:55:12.862Z,100303.31
2023-04-15T19:57:41.000Z,100297.69
2023-04-15T20:00:10.511Z,100298.69
2023-04-15T20:02:38.661Z,100301.47
2023-04-15T20:05:09.994Z,100298.75
2023-04-15T20:07:39.863Z,100299.78
2023-04-15T20:10:12.466Z,100298.41
2023-04-15T20:12:50.839Z,100305.09
2023-04-15T20:15:22.879Z,100304.06
2023-04-15T20:17:51.003Z,100302.16
2023-04-15T20:20:20.428Z,100309.91
2023-04-15T20:22:48.536Z,100304.81
2023-04-15T20:25:16.868Z,100306.84
2023-04-15T20:27:45.740Z,100308.31
2023-04-15T20:30:14.108Z,100310.22
2023-04-15T20:32:42.431Z,100311.47
2023-04-15T20:35:10.581Z,100308.97
2023-04-15T20:37:40.498Z,100312.66
2023-04-15T20:40:09.576Z,100317.00
2023-04-15T20:42:37.834Z,100315.13
2023-04-15T20:45:06.992Z,100322.78
2023-04-15T20:47:34.899Z,100318.53
2023-04-15T20:50:02.944Z,100322.75
2023-04-15T20:52:30.963Z,100312.97
2023-04-15T20:55:02.989Z,100315.66
2023-04-15T20:57:31.328Z,100322.41
2023-04-15T20:59:59.318Z,100319.09
2023-04-15T21:02:27.934Z,100324.88
2023-04-15T21:04:56.267Z,100332.28
2023-04-15T21:07:24.413Z,100329.69
2023-04-15T21:09:52.784Z,100326.38
2023-04-15T21:12:22.341Z,100329.72
2023-04-15T21:14:51.442Z,100328.34
2023-04-15T21:17:19.468Z,100338.75
2023-04-15T21:19:47.862Z,100339.09
2023-04-15T21:22:16.334Z,100345.53
2023-04-15T21:24:44.224Z,100346.38
2023-04-15T21:27:12.457Z,100353.41
2023-04-15T21:29:41.995Z,100345.66
2023-04-15T21:32:10.617Z,100353.00
2023-04-15T21:34:38.962Z,100359.09
2023-04-15T21:37:06.869Z,100351.31
2023-04-15T21:39:35.412Z,100358.22
2023-04-15T21:42:03.771Z,100365.06
2023-04-15T21:44:32.214Z,100361.91
2023-04-15T21:47:02.488Z,100363.81
2023-04-15T21:49:31.395Z,100366.00
2023-04-15T21:52:01.428Z,100372.19
2023-04-15T21:54:31.337Z,100371.09
2023-04-15T21:56:59.578Z,100371.34
2023-04-15T21:59:27.581Z,100374.72
2023-04-15T22:01:56.605Z,100373.25
2023-04-15T22:04:26.149Z,100376.88
2023-04-15T22:06:55.760Z,100382.28
2023-04-15T22:09:23.801Z,100393.81
2023-04-15T22:11:51.692Z,100392.88
2023-04-15T22:14:19.988Z,100388.38
2023-04-15T22:16:48.296Z,100384.75
2023-04-15T22:19:15.996Z,100395.44
2023-04-15T22:21:45.106Z,100388.38
2023-04-15T22:24:34.472Z,100391.31
2023-04-15T22:27:02.059Z,100394.44
2023-04-15T22:29:30.711Z,100399.19
2023-04-15T22:31:58.969Z,100407.94
2023-04-15T22:34:26.890Z,100404.22
2023-04-15T22:36:55.937Z,100405.84
2023-04-15T22:39:23.707Z,100414.50
2023-04-15T22:41:51.466Z,100422.66
2023-04-15T22:44:19.601Z,100422.56
2023-04-15T22:46:47.292Z,100432.88
2023-04-15T22:49:15.515Z,100427.91
2023-04-15T22:51:44.943Z,100433.78
2023-04-15T22:54:14.053Z,100437.69
2023-04-15T22:56:42.502Z,100433.81
2023-04-15T22:59:10.428Z,100438.88
2023-04-15T23:01:39.372Z,100446.00
2023-04-15T23:04:24.974Z,100450.06
2023-04-15T23:06:55.701Z,100448.25
2023-04-15T23:09:25.203Z,100449.63
2023-04-15T23:11:53.138Z,100451.34
2023-04-15T23:14:26.052Z,100465.69
2023-04-15T23:16:54.207Z,100457.25
2023-04-15T23:19:21.953Z,100461.94
2023-04-15T23:21:50.252Z,100463.91
2023-04-15T23:24:18.326Z,100464.81
2023-04-15T23:26:47.452Z,100472.75
2023-04-15T23:29:15.214Z,100464.81
2023-04-15T23:31:43.301Z,100470.16
2023-04-15T23:34:11.389Z,100469.88
2023-04-15T23:36:39.584Z,100477.91
2023-04-15T23:39:07.728Z,100466.78
2023-04-15T23:41:36.610Z,100476.50
2023-04-15T23:44:06.451Z,100480.81
2023-04-15T23:46:34.289Z,100487.38
2023-04-15T23:49:02.150Z,100481.91
2023-04-15T23:51:30.122Z,100475.75
2023-04-15T23:53:57.879Z,100471.81
2023-04-15T23:56:25.795Z,100473.16
2023-04-15T23:58:53.467Z,100472.13
